ドーハ の空港の天気 - METARとTAF

ドーハ国際空港 ( OTBD / DOH ) - カタール ドーハ
飛行場実況気象(Metar)
観測時間02/18 01:30 AST (02/17 22:30 UTC)
風向・風速北西 6m/s
視程10km以上
天気現象
なし
気温16℃
湿度55%
気圧1016hPa
METAROTBD 172230Z AUTO 31011KT CAVOK 16/07 Q1016 NOSIG
過去の天気等 Google飛行場航空写真 Wunderground天気予報

過去48時間のMETAR

飛行場予報(TAF)
発表時間: 2/17 19:57 AST (2/17 16:57 UTC)
予報対象時間: 17日21時 AST ~ 19日3時 AST
風向・風速北西 8m/s
視程10km以上
なし
18日0時 AST ~ 18日2時 AST に徐々に
風向・風速西北西 5m/s
18日9時 AST ~ 18日11時 AST に徐々に
風向・風速北 8m/s
18日19時 AST ~ 18日21時 AST に徐々に
風向・風速西北西 4m/s
TAF OTBD 171657Z 1718/1824 32016KT CAVOK
BECMG 1721/1723 30010KT
BECMG 1806/1808 35015KT
BECMG 1816/1818 29008KT